createdAt,value
2018-04-10T00:00:32.671Z,21.50
2018-04-10T00:01:32.838Z,19.80
2018-04-10T00:02:33.011Z,19.20
2018-04-10T00:03:33.178Z,19.20
2018-04-10T00:04:33.340Z,19.70
2018-04-10T00:05:33.510Z,20.30
2018-04-10T00:06:33.679Z,20.60
2018-04-10T00:07:33.849Z,20.90
2018-04-10T00:08:34.027Z,21.20
2018-04-10T00:09:34.192Z,19.90
2018-04-10T00:10:34.365Z,21.60
2018-04-10T00:11:34.538Z,21.30
2018-04-10T00:12:34.708Z,21.00
2018-04-10T00:13:34.873Z,21.30
2018-04-10T00:14:35.045Z,21.70
2018-04-10T00:15:35.213Z,21.00
2018-04-10T00:16:35.382Z,21.20
2018-04-10T00:17:35.542Z,20.10
2018-04-10T00:18:35.717Z,20.60
2018-04-10T00:19:35.886Z,20.60
2018-04-10T00:20:36.049Z,20.20
2018-04-10T00:21:36.214Z,18.00
2018-04-10T00:22:36.387Z,18.00
2018-04-10T00:23:36.553Z,20.50
2018-04-10T00:24:36.733Z,19.50
2018-04-10T00:25:36.904Z,19.70
2018-04-10T00:26:37.072Z,20.30
2018-04-10T00:27:37.239Z,20.50
2018-04-10T00:28:37.408Z,17.60
2018-04-10T00:29:37.588Z,18.90
2018-04-10T00:30:37.757Z,17.40
2018-04-10T00:31:37.909Z,16.40
2018-04-10T00:32:38.075Z,16.10
2018-04-10T00:33:38.242Z,16.30
2018-04-10T00:34:38.418Z,16.70
2018-04-10T00:35:38.580Z,17.20
2018-04-10T00:36:38.744Z,17.30
2018-04-10T00:37:38.913Z,17.30
2018-04-10T00:38:39.085Z,17.90
2018-04-10T00:39:39.255Z,17.00
2018-04-10T00:40:39.427Z,18.50
2018-04-10T00:41:39.598Z,17.50
2018-04-10T00:42:39.761Z,17.40
2018-04-10T00:43:39.937Z,18.00
2018-04-10T00:44:40.108Z,18.10
2018-04-10T00:45:40.280Z,19.30
2018-04-10T00:46:40.447Z,18.70
2018-04-10T00:47:40.629Z,19.00
2018-04-10T00:48:40.795Z,19.10
2018-04-10T00:49:40.967Z,19.10
2018-04-10T00:50:41.129Z,18.80
2018-04-10T00:51:41.300Z,19.20
2018-04-10T00:52:41.463Z,19.50
2018-04-10T00:53:41.621Z,19.00
2018-04-10T00:54:41.789Z,19.50
2018-04-10T00:55:41.959Z,19.50
2018-04-10T00:56:42.132Z,19.70
2018-04-10T00:57:42.301Z,19.10
2018-04-10T00:58:42.464Z,20.70
2018-04-10T00:59:42.636Z,19.40
2018-04-10T01:00:42.815Z,19.60
2018-04-10T01:01:42.981Z,19.70
2018-04-10T01:02:43.153Z,20.10
2018-04-10T01:03:43.319Z,19.80
2018-04-10T01:04:43.482Z,19.90
2018-04-10T01:05:43.653Z,18.10
2018-04-10T01:06:43.821Z,19.50
2018-04-10T01:07:43.993Z,19.60
2018-04-10T01:08:44.155Z,19.30
2018-04-10T01:09:44.333Z,19.80
2018-04-10T01:10:44.503Z,19.30
2018-04-10T01:11:44.672Z,18.50
2018-04-10T01:12:44.847Z,20.10
2018-04-10T01:13:45.003Z,20.30
2018-04-10T01:14:45.170Z,19.10
2018-04-10T01:15:45.340Z,19.80
2018-04-10T01:16:45.508Z,19.00
2018-04-10T01:17:45.711Z,19.20
2018-04-10T01:18:45.855Z,19.50
2018-04-10T01:19:46.024Z,19.70
2018-04-10T01:20:46.192Z,20.20
2018-04-10T01:21:46.362Z,20.40
2018-04-10T01:22:46.528Z,20.90
2018-04-10T01:23:46.697Z,20.80
2018-04-10T01:24:46.873Z,20.80
2018-04-10T01:25:47.048Z,20.80
2018-04-10T01:26:47.218Z,20.30
2018-04-10T01:27:47.391Z,18.50
2018-04-10T01:28:47.564Z,17.10
2018-04-10T01:29:47.723Z,16.80
2018-04-10T01:30:47.895Z,17.30
2018-04-10T01:31:48.056Z,17.90
2018-04-10T01:32:48.230Z,18.80
2018-04-10T01:33:48.398Z,18.50
2018-04-10T01:34:48.576Z,19.70
2018-04-10T01:35:48.753Z,19.10
2018-04-10T01:36:48.918Z,19.00
2018-04-10T01:37:49.083Z,19.30
2018-04-10T01:38:49.250Z,20.10
2018-04-10T01:39:49.423Z,20.80
2018-04-10T01:40:49.594Z,19.30
2018-04-10T01:41:49.768Z,19.90
2018-04-10T01:42:49.941Z,20.70
2018-04-10T01:43:50.108Z,21.60
2018-04-10T01:44:50.280Z,20.70
2018-04-10T01:45:50.453Z,19.50
2018-04-10T01:46:50.628Z,16.70
2018-04-10T01:47:50.791Z,17.40
2018-04-10T01:48:50.958Z,17.00
2018-04-10T01:49:51.126Z,16.40
2018-04-10T01:50:51.293Z,15.80
2018-04-10T01:51:51.465Z,16.00
2018-04-10T01:52:51.639Z,17.00
2018-04-10T01:53:51.805Z,16.40
2018-04-10T01:54:51.969Z,17.10
2018-04-10T01:55:52.134Z,17.30
2018-04-10T01:56:52.307Z,17.70
2018-04-10T01:57:52.469Z,15.60
2018-04-10T01:58:52.638Z,14.20
2018-04-10T01:59:52.810Z,14.30
2018-04-10T02:00:53.302Z,14.40
2018-04-10T02:01:53.475Z,14.00
2018-04-10T02:02:53.542Z,15.60
2018-04-10T02:03:53.821Z,15.90
2018-04-10T02:04:53.956Z,16.10
2018-04-10T02:05:53.820Z,16.40
2018-04-10T02:06:54.310Z,16.70
2018-04-10T02:07:54.401Z,17.30
2018-04-10T02:08:54.546Z,16.40
2018-04-10T02:09:54.781Z,19.50
2018-04-10T02:10:54.548Z,19.70
2018-04-10T02:11:54.734Z,18.60
2018-04-10T02:12:54.924Z,19.70
2018-04-10T02:13:55.100Z,20.20
2018-04-10T02:14:55.274Z,20.50
2018-04-10T02:15:55.451Z,17.70
2018-04-10T02:16:55.649Z,17.10
2018-04-10T02:17:55.826Z,17.50
2018-04-10T02:18:56.008Z,17.50
2018-04-10T02:19:56.176Z,18.20
2018-04-10T02:20:56.386Z,17.90
2018-04-10T02:21:56.548Z,18.40
2018-04-10T02:22:56.733Z,18.50
2018-04-10T02:23:56.911Z,17.50
2018-04-10T02:24:57.090Z,17.60
2018-04-10T02:25:57.267Z,19.00
2018-04-10T02:26:57.454Z,19.00
2018-04-10T02:27:57.630Z,20.50
2018-04-10T02:28:57.818Z,20.00
2018-04-10T02:29:57.997Z,20.50
2018-04-10T02:30:58.182Z,20.30
2018-04-10T02:31:58.360Z,21.00
2018-04-10T02:32:58.540Z,20.00
2018-04-10T02:33:58.720Z,20.60
2018-04-10T02:34:58.902Z,20.30
2018-04-10T02:35:59.093Z,19.90
2018-04-10T02:36:59.278Z,19.50
2018-04-10T02:37:59.462Z,19.20
2018-04-10T02:38:59.637Z,19.00
2018-04-10T02:39:59.814Z,19.90
2018-04-10T02:40:59.998Z,21.00
2018-04-10T02:42:00.177Z,20.10
2018-04-10T02:43:00.362Z,19.70
2018-04-10T02:44:00.539Z,19.50
2018-04-10T02:45:00.718Z,20.00
2018-04-10T02:46:00.895Z,20.30
2018-04-10T02:47:01.062Z,20.20
2018-04-10T02:48:01.251Z,20.30
2018-04-10T02:49:01.423Z,21.00
2018-04-10T02:50:01.616Z,20.10
2018-04-10T02:51:01.786Z,20.90
2018-04-10T02:52:01.958Z,20.20
2018-04-10T02:53:02.143Z,21.00
2018-04-10T02:54:02.325Z,21.00
2018-04-10T02:55:02.507Z,21.00
2018-04-10T02:56:02.683Z,20.70
2018-04-10T02:57:02.861Z,19.80
2018-04-10T02:58:03.035Z,20.40
2018-04-10T02:59:03.214Z,20.20
2018-04-10T03:00:03.398Z,19.50
2018-04-10T03:01:03.572Z,19.40
2018-04-10T03:02:03.748Z,20.20
2018-04-10T03:03:03.929Z,19.50
2018-04-10T03:04:04.105Z,19.30
2018-04-10T03:05:04.285Z,19.00
2018-04-10T03:06:04.481Z,20.30
2018-04-10T03:07:04.658Z,19.00
2018-04-10T03:08:04.841Z,19.60
2018-04-10T03:09:05.018Z,19.40
2018-04-10T03:10:05.186Z,19.30
2018-04-10T03:11:05.379Z,20.10
2018-04-10T03:12:05.569Z,20.40
2018-04-10T03:13:05.750Z,20.40
2018-04-10T03:14:05.918Z,20.90
2018-04-10T03:15:06.095Z,20.50
2018-04-10T03:16:06.276Z,20.80
2018-04-10T03:17:06.456Z,20.60
2018-04-10T03:18:06.634Z,21.20
2018-04-10T03:19:06.819Z,21.20
2018-04-10T03:20:07.000Z,21.60
2018-04-10T03:21:07.177Z,21.80
2018-04-10T03:22:07.359Z,22.30
2018-04-10T03:23:07.532Z,21.30
2018-04-10T03:24:07.711Z,21.60
2018-04-10T03:25:07.900Z,21.70
2018-04-10T03:26:08.090Z,21.70
2018-04-10T03:27:08.273Z,21.60
2018-04-10T03:28:08.452Z,22.70
2018-04-10T03:29:08.627Z,22.60
2018-04-10T03:30:08.823Z,22.70
2018-04-10T03:31:09.008Z,23.00
2018-04-10T03:32:09.188Z,22.80
2018-04-10T03:33:09.379Z,22.90
2018-04-10T03:34:09.557Z,22.90
2018-04-10T03:35:09.729Z,23.10
2018-04-10T03:36:09.911Z,22.60
2018-04-10T03:37:10.086Z,22.20
2018-04-10T03:38:10.268Z,22.50
2018-04-10T03:39:10.447Z,21.80
2018-04-10T03:40:10.632Z,22.30
2018-04-10T03:41:10.810Z,21.90
2018-04-10T03:42:10.992Z,21.50
2018-04-10T03:43:11.165Z,20.80
2018-04-10T03:44:11.339Z,21.60
2018-04-10T03:45:11.528Z,21.40
2018-04-10T03:46:11.718Z,21.00
2018-04-10T03:47:11.892Z,21.90
2018-04-10T03:48:12.065Z,21.20
2018-04-10T03:49:12.247Z,21.60
2018-04-10T03:50:12.425Z,21.80
2018-04-10T03:51:12.592Z,22.00
2018-04-10T03:52:12.759Z,21.60
2018-04-10T03:53:12.916Z,21.90
2018-04-10T03:54:13.099Z,20.70
2018-04-10T03:55:13.268Z,21.10
2018-04-10T03:56:13.441Z,21.30
2018-04-10T03:57:13.606Z,22.30
2018-04-10T03:58:13.770Z,21.40
2018-04-10T03:59:13.951Z,21.30
2018-04-10T04:00:14.119Z,21.80
2018-04-10T04:01:14.312Z,22.30
2018-04-10T04:02:14.443Z,22.30
2018-04-10T04:03:14.611Z,22.80
2018-04-10T04:04:14.776Z,24.30
2018-04-10T04:05:14.952Z,22.60
2018-04-10T04:06:15.117Z,21.20
2018-04-10T04:07:15.285Z,20.60
2018-04-10T04:08:15.457Z,21.70
2018-04-10T04:09:15.623Z,21.50
2018-04-10T04:10:15.791Z,21.80
2018-04-10T04:11:15.954Z,23.40
2018-04-10T04:12:16.121Z,22.80
2018-04-10T04:13:16.290Z,23.10
2018-04-10T04:14:16.479Z,22.60
2018-04-10T04:15:16.620Z,22.40
2018-04-10T04:16:16.787Z,22.70
2018-04-10T04:17:16.971Z,22.80
2018-04-10T04:18:17.141Z,24.00
2018-04-10T04:19:17.302Z,23.50
2018-04-10T04:20:17.478Z,23.70
2018-04-10T04:21:17.646Z,23.80
2018-04-10T04:22:17.816Z,24.30
2018-04-10T04:23:17.990Z,22.10
2018-04-10T04:24:18.160Z,22.50
2018-04-10T04:25:18.327Z,23.00
2018-04-10T04:26:18.488Z,23.90
2018-04-10T04:27:18.663Z,22.90
2018-04-10T04:28:18.842Z,22.80
2018-04-10T04:29:19.004Z,23.30
2018-04-10T04:30:19.177Z,23.00
2018-04-10T04:31:19.349Z,22.30
2018-04-10T04:32:19.520Z,22.40
2018-04-10T04:33:19.687Z,22.60
2018-04-10T04:34:19.862Z,23.30
2018-04-10T04:35:20.030Z,24.10
2018-04-10T04:36:20.203Z,23.00
2018-04-10T04:37:20.397Z,23.20
2018-04-10T04:38:20.538Z,22.70
2018-04-10T04:39:20.719Z,23.10
2018-04-10T04:40:20.887Z,24.40
2018-04-10T04:41:21.061Z,24.00
2018-04-10T04:42:21.228Z,24.20
2018-04-10T04:43:21.397Z,23.60
2018-04-10T04:44:21.571Z,23.00
2018-04-10T04:45:21.725Z,22.20
2018-04-10T04:46:21.892Z,22.30
2018-04-10T04:47:22.061Z,22.80
2018-04-10T04:48:22.228Z,22.90
2018-04-10T04:49:22.399Z,23.90
2018-04-10T04:50:22.567Z,23.80
2018-04-10T04:51:22.734Z,23.40
2018-04-10T04:52:22.940Z,22.70
2018-04-10T04:53:23.072Z,22.60
2018-04-10T04:54:23.237Z,21.70
2018-04-10T04:55:23.469Z,21.00
2018-04-10T04:56:23.635Z,22.00
2018-04-10T04:57:23.911Z,22.20
2018-04-10T04:58:24.017Z,22.60
2018-04-10T04:59:24.186Z,23.20
2018-04-10T05:00:24.356Z,22.60
2018-04-10T05:01:24.523Z,22.00
2018-04-10T05:02:24.685Z,22.60
2018-04-10T05:03:24.860Z,22.20
2018-04-10T05:04:25.037Z,21.60
2018-04-10T05:05:25.197Z,22.70
2018-04-10T05:06:25.391Z,22.70
2018-04-10T05:07:25.552Z,22.40
2018-04-10T05:08:25.739Z,21.80
2018-04-10T05:09:25.890Z,21.80
2018-04-10T05:10:26.056Z,22.40
2018-04-10T05:11:26.223Z,21.60
2018-04-10T05:12:26.394Z,22.40
2018-04-10T05:13:26.560Z,21.80
2018-04-10T05:14:26.735Z,21.70
2018-04-10T05:15:26.955Z,21.40
2018-04-10T05:16:27.072Z,22.30
2018-04-10T05:17:27.246Z,21.10
2018-04-10T05:18:27.409Z,20.60
2018-04-10T05:19:27.576Z,20.60
2018-04-10T05:20:27.746Z,20.60
2018-04-10T05:21:27.923Z,20.60
2018-04-10T05:22:28.085Z,20.50
2018-04-10T05:23:28.255Z,20.90
2018-04-10T05:24:28.423Z,20.80
2018-04-10T05:25:28.582Z,20.10
2018-04-10T05:26:28.750Z,20.70
2018-04-10T05:27:28.925Z,21.70
2018-04-10T05:28:29.092Z,20.80
2018-04-10T05:29:29.253Z,21.10
2018-04-10T05:30:29.424Z,20.90
2018-04-10T05:31:29.593Z,20.00
2018-04-10T05:32:29.771Z,20.40
2018-04-10T05:33:29.945Z,20.40
2018-04-10T05:34:30.107Z,21.20
2018-04-10T05:35:30.279Z,22.20
2018-04-10T05:36:30.448Z,22.50
2018-04-10T05:37:30.620Z,22.20
2018-04-10T05:38:30.787Z,22.20
2018-04-10T05:39:30.964Z,22.90
2018-04-10T05:40:31.145Z,22.20
2018-04-10T05:41:31.312Z,23.10
2018-04-10T05:42:31.481Z,23.80
2018-04-10T05:43:31.658Z,22.90
2018-04-10T05:44:31.827Z,22.60
2018-04-10T05:45:31.988Z,21.30
2018-04-10T05:46:32.158Z,20.70
2018-04-10T05:47:32.322Z,20.50
2018-04-10T05:48:32.489Z,18.50
2018-04-10T05:49:32.657Z,19.60
2018-04-10T05:50:32.830Z,19.30
2018-04-10T05:51:32.995Z,19.40
2018-04-10T05:52:33.174Z,20.60
2018-04-10T05:53:33.342Z,19.40
2018-04-10T05:54:33.506Z,19.20
2018-04-10T05:55:33.675Z,19.00
2018-04-10T05:56:33.852Z,20.10
2018-04-10T05:57:34.033Z,19.90
2018-04-10T05:58:34.208Z,20.60
2018-04-10T05:59:34.373Z,19.80
2018-04-10T06:00:34.540Z,19.40
2018-04-10T06:01:34.718Z,19.50
2018-04-10T06:02:34.884Z,19.80
2018-04-10T06:03:35.067Z,20.50
2018-04-10T06:04:35.234Z,20.80
2018-04-10T06:05:35.411Z,20.00
2018-04-10T06:06:36.320Z,20.60
2018-04-10T06:07:35.743Z,20.10
2018-04-10T06:08:35.911Z,19.40
2018-04-10T06:09:36.080Z,18.90
2018-04-10T06:10:36.249Z,20.70
2018-04-10T06:11:36.418Z,20.20
2018-04-10T06:12:36.589Z,20.30
2018-04-10T06:13:36.752Z,20.30
2018-04-10T06:14:36.923Z,20.50
2018-04-10T06:15:37.089Z,20.50
2018-04-10T06:16:37.259Z,20.40
2018-04-10T06:17:37.430Z,19.60
2018-04-10T06:18:37.598Z,20.10
2018-04-10T06:19:37.769Z,20.10
2018-04-10T06:20:37.939Z,20.50
2018-04-10T06:21:38.111Z,20.70
2018-04-10T06:22:38.281Z,20.90
2018-04-10T06:23:38.449Z,20.20
2018-04-10T06:24:38.621Z,20.40
2018-04-10T06:25:38.807Z,20.90
2018-04-10T06:26:38.970Z,19.80
2018-04-10T06:27:39.140Z,20.30
2018-04-10T06:28:39.309Z,19.50
2018-04-10T06:29:39.482Z,19.50
2018-04-10T06:30:39.659Z,18.80
2018-04-10T06:31:39.822Z,18.60
2018-04-10T06:32:39.992Z,19.60
2018-04-10T06:33:40.167Z,19.00
2018-04-10T06:34:40.335Z,19.30
2018-04-10T06:35:40.525Z,18.60
2018-04-10T06:36:40.691Z,18.60
2018-04-10T06:37:40.860Z,18.70
2018-04-10T06:38:41.027Z,17.70
2018-04-10T06:39:41.203Z,17.80
2018-04-10T06:40:41.391Z,18.30
2018-04-10T06:41:41.555Z,18.60
2018-04-10T06:42:41.735Z,18.50
2018-04-10T06:43:41.931Z,18.30
2018-04-10T06:44:42.099Z,18.80
2018-04-10T06:45:42.267Z,18.80
2018-04-10T06:46:42.442Z,18.30
2018-04-10T06:47:42.640Z,18.20
2018-04-10T06:48:42.786Z,17.80
2018-04-10T06:49:42.951Z,18.20
2018-04-10T06:50:43.118Z,18.30
2018-04-10T06:51:43.296Z,19.00
2018-04-10T06:52:43.464Z,18.80
2018-04-10T06:53:43.632Z,19.20
2018-04-10T06:54:43.802Z,18.50
2018-04-10T06:55:43.985Z,19.20
2018-04-10T06:56:44.150Z,18.70
2018-04-10T06:57:44.317Z,18.90
2018-04-10T06:58:44.494Z,20.30
2018-04-10T06:59:44.665Z,19.70
2018-04-10T07:00:44.848Z,19.40
2018-04-10T07:01:45.018Z,20.60
2018-04-10T07:02:45.190Z,19.50
2018-04-10T07:03:45.360Z,19.50
2018-04-10T07:04:45.526Z,20.10
2018-04-10T07:05:45.693Z,20.10
2018-04-10T07:06:45.868Z,19.70
2018-04-10T07:07:46.036Z,20.10
2018-04-10T07:08:46.208Z,19.80
2018-04-10T07:09:46.386Z,19.20
2018-04-10T07:10:46.541Z,19.30
2018-04-10T07:11:46.701Z,18.80
2018-04-10T07:12:46.879Z,19.10
2018-04-10T07:13:47.057Z,19.70
2018-04-10T07:14:47.228Z,19.10
2018-04-10T07:15:47.397Z,19.30
2018-04-10T07:16:47.567Z,20.30
2018-04-10T07:17:47.740Z,20.00
2018-04-10T07:18:47.905Z,19.60
2018-04-10T07:19:48.082Z,19.70
2018-04-10T07:20:48.249Z,19.40
2018-04-10T07:21:48.416Z,20.80
2018-04-10T07:22:48.594Z,19.30
2018-04-10T07:23:48.764Z,20.70
2018-04-10T07:24:48.934Z,19.40
2018-04-10T07:25:49.099Z,20.20
2018-04-10T07:26:49.269Z,20.90
2018-04-10T07:27:49.445Z,20.20
2018-04-10T07:28:49.609Z,20.30
2018-04-10T07:29:49.783Z,20.50
2018-04-10T07:30:49.959Z,20.20
2018-04-10T07:31:50.120Z,20.30
2018-04-10T07:32:50.296Z,20.10
2018-04-10T07:33:50.475Z,21.00
2018-04-10T07:34:50.650Z,20.60
2018-04-10T07:35:50.818Z,20.30
2018-04-10T07:36:50.990Z,20.90
2018-04-10T07:37:51.169Z,20.10
2018-04-10T07:38:51.332Z,20.20
2018-04-10T07:39:51.497Z,20.80
2018-04-10T07:40:51.656Z,20.80
2018-04-10T07:41:51.829Z,20.50
2018-04-10T07:42:52.026Z,19.30
2018-04-10T07:43:52.197Z,20.30
2018-04-10T07:44:52.367Z,18.80
2018-04-10T07:45:53.348Z,20.50
2018-04-10T07:46:52.769Z,20.30
2018-04-10T07:47:52.933Z,20.30
2018-04-10T07:48:53.109Z,19.40
2018-04-10T07:49:53.276Z,19.60
2018-04-10T07:50:53.451Z,19.90
2018-04-10T07:51:53.622Z,19.80
2018-04-10T07:52:53.789Z,19.60
2018-04-10T07:53:53.970Z,18.80
2018-04-10T07:54:54.144Z,19.80
2018-04-10T07:55:54.320Z,19.60
2018-04-10T07:56:54.489Z,19.60
2018-04-10T07:57:54.662Z,19.30
2018-04-10T07:58:54.832Z,19.60
2018-04-10T07:59:54.999Z,19.10
2018-04-10T08:00:55.181Z,18.70
2018-04-10T08:01:55.366Z,18.80
2018-04-10T08:02:55.517Z,18.60
2018-04-10T08:03:55.690Z,18.80
2018-04-10T08:04:55.861Z,18.60
2018-04-10T08:05:56.028Z,19.10
2018-04-10T08:06:56.200Z,18.80
2018-04-10T08:07:56.371Z,18.60
2018-04-10T08:08:56.555Z,18.40
2018-04-10T08:09:56.722Z,19.30
2018-04-10T08:10:56.900Z,18.10
2018-04-10T08:11:57.067Z,18.80
2018-04-10T08:12:57.243Z,19.50
2018-04-10T08:13:57.416Z,18.40
2018-04-10T08:14:57.577Z,18.90
2018-04-10T08:15:57.747Z,18.50
2018-04-10T08:16:57.920Z,18.40
2018-04-10T08:17:58.091Z,17.80
2018-04-10T08:18:58.261Z,17.70
2018-04-10T08:19:58.440Z,18.80
2018-04-10T08:20:58.622Z,18.20
2018-04-10T08:21:58.804Z,17.90
2018-04-10T08:22:58.972Z,18.10
2018-04-10T08:23:59.137Z,18.30
2018-04-10T08:24:59.333Z,17.50
2018-04-10T08:25:59.512Z,17.70
2018-04-10T08:26:59.688Z,17.40
2018-04-10T08:27:59.866Z,17.70
2018-04-10T08:29:00.037Z,16.70
2018-04-10T08:30:00.210Z,16.00
2018-04-10T08:31:00.381Z,16.30
2018-04-10T08:32:00.562Z,16.80
2018-04-10T08:33:00.734Z,16.70
2018-04-10T08:34:00.910Z,16.20
2018-04-10T08:35:01.082Z,16.00
2018-04-10T08:36:01.295Z,16.80
2018-04-10T08:37:01.442Z,15.50
2018-04-10T08:38:01.616Z,15.90
2018-04-10T08:39:01.790Z,15.50
2018-04-10T08:40:01.965Z,15.30
2018-04-10T08:41:02.141Z,15.50
2018-04-10T08:42:02.315Z,15.00
2018-04-10T08:43:02.527Z,15.40
2018-04-10T08:44:02.669Z,15.20
2018-04-10T08:45:02.854Z,14.40
2018-04-10T08:46:03.038Z,14.40
2018-04-10T08:47:03.217Z,14.10
2018-04-10T08:48:03.394Z,14.60
2018-04-10T08:49:03.569Z,13.60
2018-04-10T08:50:03.744Z,13.80
2018-04-10T08:51:03.924Z,14.00
2018-04-10T08:52:04.107Z,12.90
2018-04-10T08:53:04.291Z,13.00
2018-04-10T08:54:04.466Z,13.00
2018-04-10T08:55:04.646Z,13.30
2018-04-10T08:56:04.833Z,13.20
2018-04-10T08:57:05.015Z,12.80
2018-04-10T08:58:05.196Z,12.90
2018-04-10T08:59:05.375Z,12.50
2018-04-10T09:00:05.553Z,12.90
2018-04-10T09:01:05.742Z,13.00
2018-04-10T09:02:05.929Z,11.80
2018-04-10T09:03:06.106Z,12.40
2018-04-10T09:04:06.275Z,11.50
2018-04-10T09:05:06.457Z,11.60
2018-04-10T09:06:06.640Z,11.80
2018-04-10T09:07:06.818Z,11.80
2018-04-10T09:08:07.024Z,12.40
2018-04-10T09:09:07.200Z,11.90
2018-04-10T09:10:07.382Z,11.80
2018-04-10T09:11:07.562Z,11.20
2018-04-10T09:12:07.739Z,11.70
2018-04-10T09:13:07.923Z,11.10
2018-04-10T09:14:08.108Z,11.60
2018-04-10T09:15:08.288Z,11.40
2018-04-10T09:16:08.468Z,11.60
2018-04-10T09:17:08.668Z,11.90
2018-04-10T09:18:08.845Z,11.50
2018-04-10T09:19:09.032Z,11.10
2018-04-10T09:20:09.220Z,11.90
2018-04-10T09:21:09.415Z,12.10
2018-04-10T09:22:09.594Z,12.00
2018-04-10T09:23:09.785Z,12.10
2018-04-10T09:24:09.988Z,11.90
2018-04-10T09:25:10.183Z,10.70
2018-04-10T09:26:10.356Z,11.10
2018-04-10T09:27:10.544Z,9.90
2018-04-10T09:28:10.727Z,11.10
2018-04-10T09:29:10.911Z,11.10
2018-04-10T09:30:11.101Z,10.80
2018-04-10T09:31:11.301Z,10.90
2018-04-10T09:32:11.472Z,10.50
2018-04-10T09:33:11.648Z,11.30
2018-04-10T09:34:11.840Z,11.10
2018-04-10T09:35:12.038Z,11.30
2018-04-10T09:36:12.236Z,11.20
2018-04-10T09:37:12.427Z,10.70
2018-04-10T09:38:12.610Z,10.80
2018-04-10T09:39:12.820Z,12.10
2018-04-10T09:40:13.009Z,11.60
2018-04-10T09:41:13.194Z,10.90
2018-04-10T09:42:13.383Z,11.00
2018-04-10T09:43:13.569Z,11.50
2018-04-10T09:44:13.774Z,11.30
2018-04-10T09:45:13.964Z,11.90
2018-04-10T09:46:14.152Z,11.30
2018-04-10T09:47:14.336Z,11.10
2018-04-10T09:48:14.538Z,10.90
2018-04-10T09:49:14.732Z,10.40
2018-04-10T09:50:14.953Z,10.30
2018-04-10T09:51:15.114Z,9.70
2018-04-10T09:52:15.307Z,9.70
2018-04-10T09:53:15.498Z,10.20
2018-04-10T09:54:15.691Z,9.70
2018-04-10T09:55:15.883Z,9.90
2018-04-10T09:56:16.082Z,9.90
2018-04-10T09:57:16.268Z,9.90
2018-04-10T09:58:16.471Z,9.80
2018-04-10T09:59:16.652Z,10.50
2018-04-10T10:00:16.839Z,10.20
2018-04-10T10:01:17.035Z,9.40
2018-04-10T10:02:17.225Z,10.70
2018-04-10T10:03:17.407Z,9.40
2018-04-10T10:04:17.613Z,10.40
2018-04-10T10:05:17.811Z,9.60
2018-04-10T10:06:17.994Z,11.30
2018-04-10T10:07:18.193Z,10.60
2018-04-10T10:08:18.380Z,11.20
2018-04-10T10:09:18.569Z,11.10
2018-04-10T10:10:18.759Z,10.50
2018-04-10T10:11:18.969Z,11.20
2018-04-10T10:12:19.142Z,11.20
2018-04-10T10:13:19.333Z,11.00
2018-04-10T10:14:19.529Z,11.20
2018-04-10T10:15:19.719Z,10.90
2018-04-10T10:16:19.918Z,11.10
2018-04-10T10:17:20.111Z,10.40
2018-04-10T10:18:20.302Z,11.40
2018-04-10T10:19:20.495Z,10.90
2018-04-10T10:20:20.688Z,11.80
2018-04-10T10:21:20.872Z,10.90
2018-04-10T10:22:21.063Z,11.00
2018-04-10T10:23:21.254Z,10.80
2018-04-10T10:24:21.444Z,11.00
2018-04-10T10:25:21.638Z,12.10
2018-04-10T10:26:21.832Z,11.30
2018-04-10T10:27:22.021Z,11.60
2018-04-10T10:28:22.213Z,11.70
2018-04-10T10:29:22.405Z,12.50
2018-04-10T10:30:22.598Z,12.40
2018-04-10T10:31:22.790Z,12.20
2018-04-10T10:32:22.981Z,12.20
2018-04-10T10:33:23.171Z,11.70
2018-04-10T10:34:23.367Z,11.50
2018-04-10T10:35:23.567Z,12.10
2018-04-10T10:36:23.759Z,13.10
2018-04-10T10:37:23.954Z,12.70
2018-04-10T10:38:24.144Z,11.00
2018-04-10T10:39:24.344Z,11.20
2018-04-10T10:40:24.540Z,11.30
2018-04-10T10:41:24.731Z,11.30
2018-04-10T10:42:24.921Z,11.40
2018-04-10T10:43:25.112Z,11.90
2018-04-10T10:44:25.306Z,11.70
2018-04-10T10:45:25.504Z,12.50
2018-04-10T10:46:25.701Z,12.80
2018-04-10T10:47:25.909Z,12.90
2018-04-10T10:48:26.107Z,13.00
2018-04-10T10:49:26.298Z,13.60
2018-04-10T10:50:26.490Z,12.70
2018-04-10T10:51:26.686Z,12.20
2018-04-10T10:52:26.878Z,13.30
2018-04-10T10:53:27.071Z,12.60
2018-04-10T10:54:27.260Z,13.10
2018-04-10T10:55:27.448Z,12.80
2018-04-10T10:56:27.646Z,13.10
2018-04-10T10:57:27.856Z,13.10
2018-04-10T10:58:28.039Z,12.60
2018-04-10T10:59:28.223Z,13.30
2018-04-10T11:00:28.429Z,13.40
2018-04-10T11:01:28.633Z,12.70
2018-04-10T11:02:28.824Z,12.90
2018-04-10T11:03:29.020Z,12.70
2018-04-10T11:04:29.215Z,12.70
2018-04-10T11:05:29.409Z,13.50
2018-04-10T11:06:29.619Z,12.20
2018-04-10T11:07:29.797Z,13.00
2018-04-10T11:08:30.004Z,12.90
2018-04-10T11:09:30.210Z,12.40
2018-04-10T11:10:30.384Z,12.00
2018-04-10T11:11:30.583Z,12.20
2018-04-10T11:12:30.790Z,13.10
2018-04-10T11:13:30.991Z,12.50
2018-04-10T11:14:31.190Z,13.00
2018-04-10T11:15:31.371Z,12.10
2018-04-10T11:16:31.591Z,12.20
2018-04-10T11:17:31.767Z,12.00
2018-04-10T11:18:32.005Z,12.90
2018-04-10T11:19:32.186Z,12.70
2018-04-10T11:20:32.392Z,12.90
2018-04-10T11:21:32.584Z,13.10
2018-04-10T11:22:32.768Z,12.50
2018-04-10T11:23:32.995Z,12.20
2018-04-10T11:24:33.188Z,11.50
2018-04-10T11:25:33.380Z,12.20
2018-04-10T11:26:33.592Z,13.20
2018-04-10T11:27:33.773Z,13.10
2018-04-10T11:28:33.975Z,12.70
2018-04-10T11:29:34.166Z,13.50
2018-04-10T11:30:34.365Z,13.20
2018-04-10T11:31:34.569Z,12.80
2018-04-10T11:32:34.774Z,13.10
2018-04-10T11:33:34.962Z,13.10
2018-04-10T11:34:35.160Z,13.70
2018-04-10T11:35:35.357Z,13.50
2018-04-10T11:36:35.552Z,13.00
2018-04-10T11:37:35.746Z,13.50
2018-04-10T11:38:35.951Z,13.40
2018-04-10T11:39:36.146Z,12.80
2018-04-10T11:40:36.338Z,12.70
2018-04-10T11:41:36.666Z,12.40
2018-04-10T11:42:36.795Z,13.60
2018-04-10T11:43:37.006Z,13.00
2018-04-10T11:44:37.194Z,12.40
2018-04-10T11:45:37.391Z,12.10
2018-04-10T11:46:37.590Z,11.90
2018-04-10T11:47:37.786Z,12.10
2018-04-10T11:49:30.126Z,13.10
2018-04-10T11:50:30.320Z,12.30
2018-04-10T11:51:30.852Z,13.50
2018-04-10T11:52:30.798Z,12.10
2018-04-10T11:53:31.659Z,11.20
2018-04-10T11:54:31.529Z,11.90
2018-04-10T11:55:36.320Z,12.40
2018-04-10T11:56:33.222Z,12.40
2018-04-10T11:58:54.414Z,12.80
2018-04-10T11:59:54.218Z,11.70
2018-04-10T12:00:53.780Z,12.20
2018-04-10T12:01:54.500Z,12.20
2018-04-10T12:02:54.417Z,12.50
2018-04-10T12:03:55.294Z,12.50
2018-04-10T12:04:54.779Z,12.70
2018-04-10T12:05:55.380Z,12.20
2018-04-10T12:06:54.991Z,12.10
2018-04-10T12:07:55.074Z,12.70
2018-04-10T12:08:55.677Z,13.30
2018-04-10T12:09:56.000Z,12.70
2018-04-10T12:10:55.997Z,13.20
2018-04-10T12:11:56.436Z,13.20
2018-04-10T12:12:56.440Z,13.70
2018-04-10T12:13:57.535Z,13.60
2018-04-10T12:14:57.261Z,13.40
2018-04-10T12:15:57.113Z,12.70
2018-04-10T12:16:57.560Z,12.40
2018-04-10T12:17:57.426Z,12.40
2018-04-10T12:18:57.490Z,13.40
2018-04-10T12:19:57.553Z,12.90
2018-04-10T12:20:57.823Z,13.00
2018-04-10T12:21:57.802Z,12.90
2018-04-10T12:22:58.014Z,13.30
2018-04-10T12:23:58.212Z,12.70
2018-04-10T12:24:58.416Z,13.20
2018-04-10T12:25:58.616Z,12.40
2018-04-10T12:26:58.818Z,13.20
2018-04-10T12:27:59.020Z,13.50
2018-04-10T12:28:59.216Z,14.20
2018-04-10T12:29:59.526Z,13.70
2018-04-10T12:30:59.650Z,14.40
2018-04-10T12:31:59.846Z,14.50
2018-04-10T12:33:00.038Z,13.40
2018-04-10T12:34:00.239Z,12.80
2018-04-10T12:35:00.438Z,13.30
2018-04-10T12:36:00.632Z,14.20
2018-04-10T12:37:00.842Z,14.30
2018-04-10T12:38:01.043Z,14.10
2018-04-10T12:39:01.241Z,15.10
2018-04-10T12:40:01.437Z,14.80
2018-04-10T12:41:01.640Z,13.80
2018-04-10T12:42:01.830Z,14.30
2018-04-10T12:43:02.071Z,13.60
2018-04-10T12:44:02.257Z,13.00
2018-04-10T12:45:02.417Z,15.00
2018-04-10T12:46:02.615Z,15.70
2018-04-10T12:47:02.813Z,16.20
2018-04-10T12:48:03.004Z,15.90
2018-04-10T12:49:03.198Z,16.50
2018-04-10T12:50:03.396Z,15.70
2018-04-10T12:51:03.583Z,14.80
2018-04-10T12:52:03.774Z,15.30
2018-04-10T12:53:03.972Z,15.70
2018-04-10T12:54:04.162Z,15.00
2018-04-10T12:55:04.355Z,15.60
2018-04-10T12:56:04.546Z,15.30
2018-04-10T12:57:04.740Z,15.20
2018-04-10T12:58:04.934Z,14.90